Berens River, Canada
Current Conditions -  °F | °C
As of 11:00 AM on Thursday 30 Oct 2014 (Local Time) from CYNE Reporting Station
Broken Clouds Broken Clouds  
Wind Chill: 12°   Ceiling: 2600
Heat Index: 25°   Visibility: 9mi
Dew Point: 16°   Wind: 15mph
Humidity: 69%   Direction: 340°NNW
Pressure: 30.42"   Gusts: 21mph
Location:  52.37°N, 97.03°W
Report Text: CYNE 301600Z AUTO 34013G18KT 320V030 9SM BKN026 M04/M09 A3042 RMK SLP316
Loading
Personal Weather Stations






























Interactive Weather Map
Tropical Storm Tracking
New forecast layout! Learn more

10-Day Weather Forecast

Advertisements
Track Severe Weather on mobile